CST,Max TemperatureF,Mean TemperatureF,Min TemperatureF,Max Dew PointF,MeanDew PointF,Min DewpointF,Max Humidity, Mean Humidity, Min Humidity, Max Sea Level PressureIn, Mean Sea Level PressureIn, Min Sea Level PressureIn, Max VisibilityMiles, Mean VisibilityMiles, Min VisibilityMiles, Max Wind SpeedMPH, Mean Wind SpeedMPH, Max Gust SpeedMPH,PrecipitationIn, CloudCover, Events, WindDirDegrees
2012-11-1,70,56,42,48,41,34,93,64,32,30.06,30.01,29.97,10,10,10,10,3,17,0.00,0,,313
2012-11-2,81,62,43,57,50,39,93,70,37,30.06,30.01,29.96,10,10,9,9,2,,0.00,0,,249
2012-11-3,82,66,51,61,55,50,100,84,39,30.12,30.06,30.03,10,5,0,8,1,,0.00,2,Fog,254
2012-11-4,75,64,53,60,54,50,100,83,45,30.09,30.05,30.01,10,6,1,10,2,17,0.00,0,,295
2012-11-5,71,58,44,53,44,33,96,72,25,30.09,30.01,29.91,10,9,2,16,5,28,0.32,4,Rain,350
2012-11-6,57,52,46,48,46,43,100,85,59,29.99,29.95,29.91,10,8,0,12,5,16,0.00,7,Fog,315
2012-11-7,62,52,43,46,39,32,97,66,36,30.11,30.00,29.93,10,9,6,16,7,21,0.00,2,,305
2012-11-8,64,50,37,43,38,35,93,70,35,30.23,30.18,30.11,10,10,8,10,4,,0.00,0,,354
2012-11-9,70,52,34,46,39,31,90,70,31,30.31,30.24,30.20,10,9,5,5,1,,0.01,0,,60
2012-11-10,73,54,35,48,38,33,93,66,25,30.33,30.28,30.24,10,8,2,8,1,,0.00,0,,163
2012-11-11,75,58,42,52,48,38,89,69,42,30.33,30.25,30.20,10,10,10,12,3,18,0.00,1,Hail,131
2012-11-12,70,58,45,64,54,41,94,88,78,30.32,30.24,30.14,10,8,1,15,8,22,0.44,5,Rain,320
2012-11-13,59,48,37,39,30,26,93,56,28,30.37,30.30,30.25,10,10,10,15,9,21,0.00,0,Hail,355
2012-11-14,57,48,39,48,43,30,89,76,62,30.28,30.25,30.21,10,10,10,7,4,,0.00,7,,24
2012-11-15,55,47,39,46,43,38,93,82,62,30.28,30.24,30.21,10,10,8,9,5,,0.00,5,,39
2012-11-16,63,52,41,46,43,38,96,80,48,30.30,30.26,30.22,10,9,4,10,3,16,0.00,3,,28
2012-11-17,62,50,37,41,37,35,93,67,38,30.37,30.31,30.28,10,10,9,13,4,20,0.01,0,,31
2012-11-18,64,50,37,43,38,33,89,67,40,30.35,30.30,30.25,10,10,10,10,5,,0.00,0,,3
2012-11-19,66,52,39,47,42,35,93,74,44,30.29,30.23,30.17,10,10,10,8,3,,0.00,0,,354
2012-11-20,64,53,42,54,47,39,93,81,64,30.19,30.12,29.54,10,10,10,7,3,,0.00,3,Rain,333
2012-11-21,73,59,45,49,46,42,90,69,37,30.17,30.14,30.10,10,10,9,10,3,,0.00,1,,343
2012-11-22,73,57,41,50,44,38,93,69,34,30.24,30.19,30.15,10,10,8,5,2,,0.00,0,,12
2012-11-23,73,58,43,54,47,39,90,65,38,30.23,30.16,30.09,10,10,10,17,4,24,0.00,1,,288
2012-11-24,55,44,32,44,29,22,85,56,27,30.25,30.19,30.15,10,10,10,13,8,20,0.00,0,,331
2012-11-25,63,46,28,32,26,19,88,59,19,30.23,30.16,30.11,10,10,10,7,2,,0.00,0,,262
2012-11-26,69,50,30,50,42,27,85,68,45,30.22,30.16,30.12,10,10,10,8,2,,0.00,1,,151
2012-11-27,61,56,48,59,54,45,100,91,83,30.26,30.15,30.09,10,7,1,12,4,,0.24,8,Rain-Hail,322
2012-11-28,59,47,35,45,37,30,93,71,33,30.39,30.33,30.27,10,9,7,13,6,18,0.00,3,,340
2012-11-29,55,42,30,43,36,28,93,83,62,30.41,30.35,30.31,10,8,1,9,2,,0.00,3,,35
2012-11-30,69,54,39,54,49,36,93,81,56,30.32,30.28,30.22,10,10,7,6,1,,0.00,5,,147